Corporación Autónoma Regional de La Guajira

La Sostenibilidad Ambiental, un Compromiso de Todos


Menú Principal

PERIODICO CORPOGUAJIRA CONTIGO NEWS

ACTOS ANTE EL CORONAVIRUS

AUDIENCIA PÚBLICA DE SEGUIMIENTO AL PLAN DE ACCIÓN – VIGENCIA 2021

PARTICIPACION DEL PLAN ANTICORRUPCION 2022

Presupuesto Participativo

FORO PGAR 2020 – 2031

PGAR 2020 2031

CNSC

ALERTA TEMPRANA POR DEFORESTACION

Detecciones Tempranas de Cambios en Ecosistemas Claves del Caribe y la Orinoquía Colombiana

CAPACITACIÓN MIMAC

CONSULTA PARA LA FIJACIÓN DE METAS

GEODATABASE -GDB

RCD

ACU – ACEITE DE COCINA USADO

Información Planifificación Territorial

Información de Gestión del Riesgo

SAT

ENCUESTA DE SATISFACCION

ECOGUAJIRA

PLAN DE ACCION 2020 – 2023

PERS GUAJIRA

Vital

VITAL

PQRSD Y QUEJAS AMBIENTALES

PQRSD1

La Ruta de Wayurey

Facebook

Videos

Transparencia y Acceso a la Información Publica

EMPLEO JUVENIL

Facebook

Calendario de Eventos y Publicaciones

diciembre 2022
L M X J V S D
 1234
567891011
12131415161718
19202122232425
262728293031  

Facebook

Facebook

Traducir este sitio


by Transposh - Plugin de traducción para WordPress

Archivos

AUTOS AMBIENTALES DE ENERO A MARZO 2016.

 

ENERO TAMAÑO FECHA
 AUTO No. 0038 DEL 14 DE ENERO DE 2016 DT  647 KB  05-02-2016
 AUTO No. 0048 DEL 18 DE ENERO DE 2016 DT  364 KB  05-02-2016
 AUTO No. 0065 DEL 21 DE ENERO DE 2016 DT  333 KB  05-02-2016
 AUTO No. 0068 DEL 21 DE ENERO DE 2016 DT  358 KB  05-02-2016
 AUTO No. 0067 DEL 21 DE ENERO DE 2016 DT  341 KB  05-02-2016
 AUTO No. 0069 DEL 21 DE ENERO DE 2016 DT  407 KB  05-02-2016
 AUTO No. 0073 DEL 21 DE ENERO DE 2016 DT  488 KB  05-02-2016
 AUTO No. 0076 DEL 22 DE ENERO DE 2016 DT  600 KB  05-02-2016
 AUTO No. 0088 DEL 28 DE ENERO DE 2016 DT  315 KB  05-02-2016
 AUTO No. 0025 DEL 14 DE ENERO DE 2016 DT  502 KB  17-02-2016
 AUTO No. 0046 DEL 15 DE ENERO DE 2016 DT  412 KB  17-02-2016
 AUTO No. 0064 DEL 21 DE ENERO DE 2016 DT  431 KB  17-02-2016
 AUTO No. 0075 DEL 21 DE ENERO DE 2016 DT  403 KB  17-02-2016
 AUTO No. 0084 DEL 26 DE ENERO DE 2016 DT  401 KB  17-02-2016
 AUTO No. 0005 DEL 07 DE ENERO DE 2016  366 KB  19-02-2016
 AUTO No. 0006 DEL 07 DE ENERO DE 2016  408 KB  19-02-2016
 AUTO No. 0007 DEL 07 DE ENERO DE 2016  405 KB  19-02-2016
 AUTO No. 0013 DEL 08 DE ENERO DE 2016  438 KB  19-02-2016
 AUTO No. 0014 DEL 08 DE ENERO DE 2016  440 KB  19-02-2016
 AUTO No. 0015 DEL 08 DE ENERO DE 2016  443 KB  19-02-2016
 AUTO No. 0029 DEL 14 DE ENERO DE 2016  383 KB  19-02-2016
 AUTO No. 0030 DEL 14 DE ENERO DE 2016  400 KB  19-02-2016
 AUTO No. 0032 DEL 14 DE ENERO DE 2016  399 KB  19-02-2016
 AUTO No. 0047 DEL 18 DE ENERO DE 2016  415 KB  07-03-2016
 AUTO No. 0077 DEL 22 DE ENERO DE 2016  424 KB  07-03-2016
 AUTO No. 0008 DEL 07 DE ENERO DE 2016  369 KB  07-03-2016
 AUTO No. 0066 DEL 21 DE ENERO DE 2016 DT  516 KB  15-03-2016
 AUTO No. 0095 DEL 29 DE ENERO DE 2016   517 KB  15-03-2016
 AUTO No. 0096 DEL 29 DE ENERO DE 2016  487 KB  18-03-2016
 AUTO No. 0031 DEL 14 DE ENERO DE 2016   505 KB  18-03-2016
 AUTO No. 0033 DEL 14 DE ENERO DE 2016   497 KB  18-03-2016
 AUTO No. 0034 DEL 14 DE ENERO DE 2016   595 KB  18-03-2016
 AUTO No. 0041 DEL 14 DE ENERO DE 2016   504 KB  18-03-2016
 AUTO No. 0042 DEL 14 DE ENERO DE 2016  499 KB  18-03-2016
 AUTO No. 0043 DEL 14 DE ENERO DE 2016  498 KB  18-03-2016
 AUTO No. 0082 DEL 25 DE ENERO DE 2016  299 KB  09-06-2016
 AUTO No. 0093 DEL 29 DE ENERO DE 2016  2,78 MB  04-11-2016
 AUTO No. 0094 DEL 29 DE ENERO DE 2016  2,77 MB  04-11-2016

 

 

 

FEBRERO TAMAÑO FECHA
 AUTO No. 0108 DEL 03 DE FEBRERO DE 2016  530 KB  07-03-2016
 AUTO No. 0166 DEL 15 DE FEBRERO DE 2016  412 KB  07-03-2016
 AUTO No. 0100 DEL 02 DE FEBRERO DE 2016 DT  468 KB  09-03-2016
 AUTO No. 0133 DEL 12 DE FEBRERO DE 2016 DT  575 KB  10-03-2016
 AUTO No. 0134 DEL 12 DE FEBRERO DE 2016 DT  573 KB  10-03-2016
 AUTO No. 0135 DEL 12 DE FEBRERO DE 2016 DT  552 KB  10-03-2016
 AUTO No. 0177 DEL 17 DE FEBRERO DE 2016 DT  534 KB  10-03-2016
 AUTO No. 0206 DEL 23 DE FEBRERO DE 2016 DT  373 KB  10-03-2016
 AUTO No. 0101 DEL 02 DE FEBRERO DE 2016 DT  511 KB  15-03-2016
 AUTO No. 0152 DEL 15 DE FEBRERO DE 2016 DT  542 KB  15-03-2016
 AUTO No. 0205 DEL 23 DE FEBRERO DE 2016 DT  598 KB  15-03-2016
 AUTO No. 0233 DEL 29 DE FEBRERO DE 2016 DT  638 KB  15-03-2016
 AUTO No. 0210 DEL 24 DE FEBRERO DE 2016   397 KB  15-03-2016
 AUTO No. 0211 DEL 24 DE FEBRERO DE 2016   361 KB  15-03-2016
  AUTO No. 0198 DEL 19 DE FEBRERO DE 2016   429 KB  16-03-2016
 AUTO No. 0173 DEL 17 DE FEBRERO DE 2016   312 KB  17-03-2016
 AUTO No. 0203 DEL 23 DE FEBRERO DE 2016   415 KB  17-03-2016
 AUTO No. 0204 DEL 23 DE FEBRERO DE 2016   642 KB  17-03-2016
 AUTO No. 0149 DEL 15 DE FEBRERO DE 2016   456 KB  18-03-2016
 AUTO No. 0112 DEL 04 DE FEBRERO DE 2016 DT  876 KB  31-03-2016
 AUTO No. 0186 DEL 18 DE FEBRERO DE 2016   429 KB  31-03-2016
 AUTO No. 0202 DEL 23 DE FEBRERO DE 2016   359 KB  31-03-2016
 AUTO No. 0124 DEL 10 DE FEBRERO DE 2016 DT  640 KB  13-04-2016
 AUTO No. 0172 DEL 17 DE FEBRERO DE 2016 DT  412 KB  13-04-2016
 AUTO No. 0207 DEL 23 DE FEBRERO DE 2016 DT  556 KB  13-04-2016
 AUTO No. 0220 DEL 26 DE FEBRERO DE 2016 DT  363 KB  13-04-2016
 AUTO No. 0223 DEL 26 DE FEBRERO DE 2016 DT  465 KB  13-04-2016
 AUTO No. 0225 DEL 26 DE FEBRERO DE 2016 DT  454 KB  13-04-2016
 AUTO No. 0232 DEL 29 DE FEBRERO DE 2016 DT  639 KB  13-04-2016
 AUTO No. 0113 DEL 04 DE FEBRERO DE 2016  76 KB  27-05-2016
 AUTO No. 0167 DEL 16 DE FEBRERO DE 2016  333 KB  17-06-2016
 AUTO No. 0169 DEL 17 DE FEBRERO DE 2016  336 KB  17-06-2016
 AUTO No. 0170 DEL 17 DE FEBRERO DE 2016  339 KB  17-06-2016
 AUTO No. 0171 DEL 17 DE FEBRERO DE 2016  336 KB  17-06-2016
 AUTO No. 0174 DEL 17 DE FEBRERO DE 2016 DT  654 KB  05-07-2016
 AUTO No. 0115 DEL 05 DE FEBRERO DE 2016  294 KB  09-02-2017

 

 

 

MARZO TAMAÑO FECHA
 AUTO No. 0258 DEL 03 DE MARZO DE 2016   390 KB  15-03-2016
 AUTO No. 0262 DEL 04 DE MARZO DE 2016   374 KB  15-03-2016
 AUTO No. 0240 DEL 02 DE MARZO DE 2016   742 KB  15-03-2016
 AUTO No. 0267 DEL 04 DE MARZO DE 2016   425 KB  17-03-2016
 AUTO No. 0242 DEL 02 DE MARZO DE 2016   531 KB  18-03-2016
 AUTO No. 0243 DEL 02 DE MARZO DE 2016  528 KB  18-03-2016
 AUTO No. 0244 DEL 02 DE MARZO DE 2016  540 KB  18-03-2016
 AUTO No. 0245 DEL 02 DE MARZO DE 2016  533 KB  18-03-2016
 AUTO No. 0246 DEL 02 DE MARZO DE 2016  541 KB  18-03-2016
 AUTO No. 0247 DEL 02 DE MARZO DE 2016   531 KB  18-03-2016
 AUTO No. 0248 DEL 02 DE MARZO DE 2016  545 KB  18-03-2016
 AUTO No. 0249 DEL 02 DE MARZO DE 2016   527 KB  18-03-2016
 AUTO No. 0269 DEL 04 DE MARZO DE 2016 DT  566 KB  31-03-2016
 AUTO No. 0327 DEL 15 DE MARZO DE 2016  385 KB  06-04-2016
 AUTO No. 0253 DEL 02 DE MARZO DE 2016  390 KB  08-04-2016
 AUTO No. 0284 DEL 08 DE MARZO DE 2016  489 KB  08-04-2016
 AUTO No. 0286 DEL 09 DE MARZO DE 2016 DT  552 KB  13-04-2016
 AUTO No. 0288 DEL 09 DE MARZO DE 2016 DT  605 KB  13-04-2016
 AUTO No. 0291 DEL 09 DE MARZO DE 2016 DT  803 KB  13-04-2016
 AUTO No. 0297 DEL 10 DE MARZO DE 2016  375 KB  13-04-2016
 AUTO No. 0302 DEL 11 DE MARZO DE 2016 DT  383 KB  13-04-2016
 AUTO No. 0308 DEL 14 DE MARZO DE 2016  483 KB  13-04-2016
 AUTO No. 0326 DEL 15 DE MARZO DE 2016  379 KB  13-04-2016
 AUTO No. 0328 DEL 15 DE MARZO DE 2016  459 KB  13-04-2016
 AUTO No. 0349 DEL 18 DE MARZO DE 2016 DT  749 KB  13-04-2016
 AUTO No. 0356 DEL 22 DE MARZO DE 2016 DT  646 KB  13-04-2016
 AUTO No. 0296 DEL 10 DE MARZO DE 2016  384 KB  13-04-2016
 AUTO No. 0350 DEL 18 DE MARZO DE 2016 DT  720 KB  13-04-2016
 AUTO No. 0319 DEL 15 DE MARZO DE 2016 DT  500 KB  13-04-2016
 AUTO No. 0346 DEL 17 DE MARZO DE 2016  563 KB  13-04-2016
 AUTO No. 0347 DEL 17 DE MARZO DE 2016  402 KB  13-04-2016
 AUTO No. 0357 DEL 22 DE MARZO DE 2016  484 KB  13-04-2016
 AUTO No. 0359 DEL 23 DE MARZO DE 2016  593 KB  13-04-2016
 AUTO No. 0373 DEL 30 DE MARZO DE 2016 DT  393 KB  20-04-2016
 AUTO No. 0374 DEL 30 DE MARZO DE 2016 DT  1,15 MB  20-04-2016
 AUTO No. 0386 DEL 31 DE MARZO DE 2016 DT  482 KB  20-04-2016
 AUTO No. 0387 DEL 31 DE MARZO DE 2016 DT  564 KB  20-04-2016
 AUTO No. 0390 DEL 31 DE MARZO DE 2016 DT  301 KB  20-04-2016
 AUTO No. 0266 DEL 24 DE MARZO DE 2016   379 KB  28-04-2016
 AUTO No. 0315 DEL 15 DE MARZO DE 2016 DT  554 KB  28-04-2016
 AUTO No. 0316 DEL 15 DE MARZO DE 2016 DT  604 KB  28-04-2016
 AUTO No. 0375 DEL 30 DE MARZO DE 2016 DT  548 KB  28-04-2016
 AUTO No. 0380 DEL 30 DE MARZO DE 2016 DT  498 KB  28-04-2016
 AUTO No. 0385 DEL 31 DE MARZO DE 2016 DT  730 KB  28-04-2016
 AUTO No. 0389 DEL 31 DE MARZO DE 2016 DT  536 KB  28-04-2016
 AUTO No. 0264 DEL 04 DE MARZO DE 2016  398 KB  16-05-2016
 AUTO No. 0348 DEL 18 DE MARZO DE 2016  423 KB  16-05-2016
 AUTO No. 0379 DEL 30 DE MARZO DE 2016 DT  2,39 MB  24-05-2016
 AUTO No. 0261 DEL 04 DE MARZO DE 2016  45,5 KB  24-05-2016
 AUTO No. 0344 DEL 17 DE MARZO DE 2016  70,9 KB  24-05-2016
 AUTO No. 0301 DEL 11 DE MARZO DE 2016 DT  1,78 MB  02-06-2016
 AUTO No. 0330 DEL 17 DE MARZO DE 2016  221 KB  17-06-2016
 AUTO No. 0360 DEL 23 DE MARZO DE 2016  310 KB  17-06-2016
 AUTO No. 0324 DEL 15 DE MARZO DE 2016  238 KB  18-07-2016
 AUTO No. 0381 DEL 30 DE MARZO DE 2016  166 KB  22-07-2016

Comentarios

Deja una respuesta